< < Back
Terminal Aerodrome Forecast


Current Version              Previous Versions:   1  2  3  4  5  6  7  8  9  

Terminal Aerodrome Forecast

373
FTUS42 KFFC 222143 AAB
TAFAHN
TAF AMD
KAHN 222143Z 2222/2318 09009KT P6SM OVC006
      TEMPO 2222/2224 4SM -RA BR
     FM230300 09008KT 2SM -DZ BR OVC004
     FM230800 10008KT 1/2SM -DZ FG OVC002
     FM231500 11007KT 2SM -SHRA BR OVC008=

Latest METAR

356
SAUS70 KWBC 222200
MTRAHN
METAR KAHN 222151Z AUTO 08007KT 6SM BR OVC005 06/05 A2998 RMK AO2 CIG
004V010 SLP157 T00610050 TSNO


USA.gov is the U.S. government's official web portal to all federal, state and local government web resources and services.